sensor_id;sensor_type;location;lat;lon;timestamp;P1;durP1;ratioP1;P2;durP2;ratioP2
3201;SDS011;34843;48.744;8.958;2023-01-01T00:01:20;5.53;;;5.03;;
3201;SDS011;34843;48.744;8.958;2023-01-01T00:03:50;4.73;;;4.33;;
3201;SDS011;34843;48.744;8.958;2023-01-01T00:06:19;5.97;;;5.37;;
3201;SDS011;34843;48.744;8.958;2023-01-01T00:08:46;5.97;;;5.40;;
3201;SDS011;34843;48.744;8.958;2023-01-01T00:11:12;11.93;;;9.90;;
3201;SDS011;34843;48.744;8.958;2023-01-01T00:13:39;10.83;;;7.23;;
3201;SDS011;34843;48.744;8.958;2023-01-01T00:16:06;3.73;;;3.43;;
3201;SDS011;34843;48.744;8.958;2023-01-01T00:18:33;1.00;;;1.00;;
3201;SDS011;34843;48.744;8.958;2023-01-01T00:23:28;7.43;;;6.63;;
3201;SDS011;34843;48.744;8.958;2023-01-01T00:25:54;14.40;;;7.80;;
3201;SDS011;34843;48.744;8.958;2023-01-01T00:28:19;23.63;;;14.17;;
3201;SDS011;34843;48.744;8.958;2023-01-01T00:30:45;16.83;;;10.40;;
3201;SDS011;34843;48.744;8.958;2023-01-01T00:33:10;17.60;;;10.20;;
3201;SDS011;34843;48.744;8.958;2023-01-01T00:35:36;15.83;;;11.00;;
3201;SDS011;34843;48.744;8.958;2023-01-01T00:38:01;6.80;;;6.17;;
3201;SDS011;34843;48.744;8.958;2023-01-01T00:40:27;6.40;;;5.80;;
3201;SDS011;34843;48.744;8.958;2023-01-01T00:42:53;9.43;;;3.20;;
3201;SDS011;34843;48.744;8.958;2023-01-01T00:45:18;14.90;;;8.20;;
3201;SDS011;34843;48.744;8.958;2023-01-01T00:47:45;13.20;;;7.93;;
3201;SDS011;34843;48.744;8.958;2023-01-01T00:50:10;5.20;;;4.70;;
3201;SDS011;34843;48.744;8.958;2023-01-01T00:52:36;2.87;;;2.67;;
3201;SDS011;34843;48.744;8.958;2023-01-01T00:55:01;3.43;;;3.13;;
3201;SDS011;34843;48.744;8.958;2023-01-01T00:57:27;3.97;;;3.20;;
3201;SDS011;34843;48.744;8.958;2023-01-01T00:59:53;5.47;;;4.70;;
3201;SDS011;34843;48.744;8.958;2023-01-01T01:02:18;1.67;;;1.57;;
3201;SDS011;34843;48.744;8.958;2023-01-01T01:04:44;0.50;;;0.40;;
3201;SDS011;34843;48.744;8.958;2023-01-01T01:07:09;2.97;;;1.57;;
3201;SDS011;34843;48.744;8.958;2023-01-01T01:09:35;2.83;;;1.33;;
3201;SDS011;34843;48.744;8.958;2023-01-01T01:12:00;1.93;;;1.83;;
3201;SDS011;34843;48.744;8.958;2023-01-01T01:14:26;1.10;;;1.00;;
3201;SDS011;34843;48.744;8.958;2023-01-01T01:16:51;6.10;;;5.50;;
3201;SDS011;34843;48.744;8.958;2023-01-01T01:19:17;3.40;;;3.10;;
3201;SDS011;34843;48.744;8.958;2023-01-01T01:21:43;0.80;;;0.70;;
3201;SDS011;34843;48.744;8.958;2023-01-01T01:24:11;0.50;;;0.40;;
3201;SDS011;34843;48.744;8.958;2023-01-01T01:26:37;3.90;;;3.60;;
3201;SDS011;34843;48.744;8.958;2023-01-01T01:29:02;3.83;;;2.77;;
3201;SDS011;34843;48.744;8.958;2023-01-01T01:31:29;5.03;;;2.90;;
3201;SDS011;34843;48.744;8.958;2023-01-01T01:33:56;3.47;;;1.60;;
3201;SDS011;34843;48.744;8.958;2023-01-01T01:36:22;7.93;;;4.40;;
3201;SDS011;34843;48.744;8.958;2023-01-01T01:38:48;5.93;;;3.63;;
3201;SDS011;34843;48.744;8.958;2023-01-01T01:41:14;10.03;;;3.43;;
3201;SDS011;34843;48.744;8.958;2023-01-01T01:46:12;7.03;;;6.30;;
3201;SDS011;34843;48.744;8.958;2023-01-01T01:48:43;10.47;;;3.43;;
3201;SDS011;34843;48.744;8.958;2023-01-01T01:51:10;3.90;;;2.60;;
3201;SDS011;34843;48.744;8.958;2023-01-01T01:53:40;7.90;;;4.30;;
3201;SDS011;34843;48.744;8.958;2023-01-01T01:56:13;3.47;;;3.27;;
3201;SDS011;34843;48.744;8.958;2023-01-01T01:58:42;4.90;;;4.07;;
3201;SDS011;34843;48.744;8.958;2023-01-01T02:01:08;4.47;;;3.17;;
3201;SDS011;34843;48.744;8.958;2023-01-01T02:03:45;9.80;;;4.90;;
3201;SDS011;34843;48.744;8.958;2023-01-01T02:06:24;15.43;;;3.77;;
3201;SDS011;34843;48.744;8.958;2023-01-01T02:08:51;5.23;;;3.70;;
3201;SDS011;34843;48.744;8.958;2023-01-01T02:11:17;1.63;;;1.30;;
3201;SDS011;34843;48.744;8.958;2023-01-01T02:13:43;3.37;;;3.13;;
3201;SDS011;34843;48.744;8.958;2023-01-01T02:16:13;2.43;;;2.23;;
3201;SDS011;34843;48.744;8.958;2023-01-01T02:19:11;1.97;;;1.87;;
3201;SDS011;34843;48.744;8.958;2023-01-01T02:22:00;5.40;;;3.27;;
3201;SDS011;34843;48.744;8.958;2023-01-01T02:24:40;2.63;;;2.47;;
3201;SDS011;34843;48.744;8.958;2023-01-01T02:30:03;11.93;;;4.83;;
3201;SDS011;34843;48.744;8.958;2023-01-01T02:32:35;3.50;;;3.30;;
3201;SDS011;34843;48.744;8.958;2023-01-01T02:35:28;17.17;;;2.63;;
3201;SDS011;34843;48.744;8.958;2023-01-01T02:38:06;4.87;;;4.33;;
3201;SDS011;34843;48.744;8.958;2023-01-01T02:40:37;5.73;;;4.33;;
3201;SDS011;34843;48.744;8.958;2023-01-01T02:43:06;2.50;;;2.30;;
3201;SDS011;34843;48.744;8.958;2023-01-01T02:45:32;2.70;;;2.60;;
3201;SDS011;34843;48.744;8.958;2023-01-01T02:48:02;2.63;;;1.47;;
3201;SDS011;34843;48.744;8.958;2023-01-01T02:50:32;2.87;;;2.60;;
3201;SDS011;34843;48.744;8.958;2023-01-01T02:53:06;1.33;;;1.23;;
3201;SDS011;34843;48.744;8.958;2023-01-01T02:58:55;1.93;;;1.83;;
3201;SDS011;34843;48.744;8.958;2023-01-01T03:01:28;1.90;;;0.60;;
3201;SDS011;34843;48.744;8.958;2023-01-01T03:04:00;0.50;;;0.40;;
3201;SDS011;34843;48.744;8.958;2023-01-01T03:06:37;0.83;;;0.70;;
3201;SDS011;34843;48.744;8.958;2023-01-01T03:12:03;0.50;;;0.50;;
3201;SDS011;34843;48.744;8.958;2023-01-01T03:17:16;1.43;;;1.33;;
3201;SDS011;34843;48.744;8.958;2023-01-01T03:19:52;0.67;;;0.67;;
3201;SDS011;34843;48.744;8.958;2023-01-01T03:22:22;0.50;;;0.50;;
3201;SDS011;34843;48.744;8.958;2023-01-01T03:24:53;0.50;;;0.40;;
3201;SDS011;34843;48.744;8.958;2023-01-01T03:27:24;0.50;;;0.40;;
3201;SDS011;34843;48.744;8.958;2023-01-01T03:29:58;2.40;;;2.30;;
3201;SDS011;34843;48.744;8.958;2023-01-01T03:32:43;0.50;;;0.40;;
3201;SDS011;34843;48.744;8.958;2023-01-01T03:35:25;0.50;;;0.50;;
3201;SDS011;34843;48.744;8.958;2023-01-01T03:37:54;0.50;;;0.40;;
3201;SDS011;34843;48.744;8.958;2023-01-01T03:40:23;0.50;;;0.40;;
3201;SDS011;34843;48.744;8.958;2023-01-01T03:42:52;0.50;;;0.40;;
3201;SDS011;34843;48.744;8.958;2023-01-01T03:45:33;0.50;;;0.40;;
3201;SDS011;34843;48.744;8.958;2023-01-01T03:48:02;0.50;;;0.40;;
3201;SDS011;34843;48.744;8.958;2023-01-01T03:50:34;0.50;;;0.40;;
3201;SDS011;34843;48.744;8.958;2023-01-01T03:53:15;0.60;;;0.60;;
3201;SDS011;34843;48.744;8.958;2023-01-01T03:56:06;0.60;;;0.43;;
3201;SDS011;34843;48.744;8.958;2023-01-01T03:58:41;0.80;;;0.80;;
3201;SDS011;34843;48.744;8.958;2023-01-01T04:01:25;0.50;;;0.40;;
3201;SDS011;34843;48.744;8.958;2023-01-01T04:03:56;0.57;;;0.50;;
3201;SDS011;34843;48.744;8.958;2023-01-01T04:06:25;1.50;;;1.37;;
3201;SDS011;34843;48.744;8.958;2023-01-01T04:08:51;0.60;;;0.60;;
3201;SDS011;34843;48.744;8.958;2023-01-01T04:11:22;0.70;;;0.63;;
3201;SDS011;34843;48.744;8.958;2023-01-01T04:14:10;1.20;;;1.17;;
3201;SDS011;34843;48.744;8.958;2023-01-01T04:16:36;0.50;;;0.40;;
3201;SDS011;34843;48.744;8.958;2023-01-01T04:19:01;1.17;;;1.17;;
3201;SDS011;34843;48.744;8.958;2023-01-01T04:21:27;0.50;;;0.50;;
3201;SDS011;34843;48.744;8.958;2023-01-01T04:23:52;1.27;;;1.03;;
3201;SDS011;34843;48.744;8.958;2023-01-01T04:26:18;1.73;;;1.23;;
3201;SDS011;34843;48.744;8.958;2023-01-01T04:28:43;0.50;;;0.40;;
3201;SDS011;34843;48.744;8.958;2023-01-01T04:31:09;0.50;;;0.40;;
3201;SDS011;34843;48.744;8.958;2023-01-01T04:33:35;0.50;;;0.40;;
3201;SDS011;34843;48.744;8.958;2023-01-01T04:36:05;0.50;;;0.40;;
3201;SDS011;34843;48.744;8.958;2023-01-01T04:38:32;0.50;;;0.30;;
3201;SDS011;34843;48.744;8.958;2023-01-01T04:40:59;0.50;;;0.40;;
3201;SDS011;34843;48.744;8.958;2023-01-01T04:43:25;1.73;;;1.63;;
3201;SDS011;34843;48.744;8.958;2023-01-01T04:45:55;0.60;;;0.60;;
3201;SDS011;34843;48.744;8.958;2023-01-01T04:48:24;0.50;;;0.40;;
3201;SDS011;34843;48.744;8.958;2023-01-01T04:50:57;0.50;;;0.40;;
3201;SDS011;34843;48.744;8.958;2023-01-01T04:53:25;0.50;;;0.40;;
3201;SDS011;34843;48.744;8.958;2023-01-01T04:55:53;0.50;;;0.40;;
3201;SDS011;34843;48.744;8.958;2023-01-01T04:58:18;0.50;;;0.40;;
3201;SDS011;34843;48.744;8.958;2023-01-01T05:00:47;0.50;;;0.40;;
3201;SDS011;34843;48.744;8.958;2023-01-01T05:03:14;0.83;;;0.63;;
3201;SDS011;34843;48.744;8.958;2023-01-01T05:05:39;0.50;;;0.40;;
3201;SDS011;34843;48.744;8.958;2023-01-01T05:08:05;0.50;;;0.40;;
3201;SDS011;34843;48.744;8.958;2023-01-01T05:10:30;0.50;;;0.50;;
3201;SDS011;34843;48.744;8.958;2023-01-01T05:12:56;0.80;;;0.80;;
3201;SDS011;34843;48.744;8.958;2023-01-01T05:15:21;0.83;;;0.83;;
3201;SDS011;34843;48.744;8.958;2023-01-01T05:17:47;0.70;;;0.57;;
3201;SDS011;34843;48.744;8.958;2023-01-01T05:20:12;0.50;;;0.40;;
3201;SDS011;34843;48.744;8.958;2023-01-01T05:22:38;0.50;;;0.40;;
3201;SDS011;34843;48.744;8.958;2023-01-01T05:25:03;1.43;;;1.33;;
3201;SDS011;34843;48.744;8.958;2023-01-01T05:27:29;0.70;;;0.70;;
3201;SDS011;34843;48.744;8.958;2023-01-01T05:29:55;0.50;;;0.40;;
3201;SDS011;34843;48.744;8.958;2023-01-01T05:32:20;0.63;;;0.50;;
3201;SDS011;34843;48.744;8.958;2023-01-01T05:34:46;1.47;;;0.40;;
3201;SDS011;34843;48.744;8.958;2023-01-01T05:37:11;0.50;;;0.40;;
3201;SDS011;34843;48.744;8.958;2023-01-01T05:39:37;0.50;;;0.40;;
3201;SDS011;34843;48.744;8.958;2023-01-01T05:42:02;1.80;;;1.70;;
3201;SDS011;34843;48.744;8.958;2023-01-01T05:44:28;1.03;;;0.40;;
3201;SDS011;34843;48.744;8.958;2023-01-01T05:46:53;0.50;;;0.40;;
3201;SDS011;34843;48.744;8.958;2023-01-01T05:49:19;0.50;;;0.40;;
3201;SDS011;34843;48.744;8.958;2023-01-01T05:51:44;0.50;;;0.40;;
3201;SDS011;34843;48.744;8.958;2023-01-01T05:54:10;0.50;;;0.40;;
3201;SDS011;34843;48.744;8.958;2023-01-01T05:56:35;0.50;;;0.40;;
3201;SDS011;34843;48.744;8.958;2023-01-01T05:59:01;0.50;;;0.40;;
3201;SDS011;34843;48.744;8.958;2023-01-01T06:01:27;0.50;;;0.37;;
3201;SDS011;34843;48.744;8.958;2023-01-01T06:03:54;0.50;;;0.40;;
3201;SDS011;34843;48.744;8.958;2023-01-01T06:06:22;0.50;;;0.40;;
3201;SDS011;34843;48.744;8.958;2023-01-01T06:11:17;0.50;;;0.40;;
3201;SDS011;34843;48.744;8.958;2023-01-01T06:13:43;0.50;;;0.40;;
3201;SDS011;34843;48.744;8.958;2023-01-01T06:16:09;0.50;;;0.40;;
3201;SDS011;34843;48.744;8.958;2023-01-01T06:18:35;0.50;;;0.40;;
3201;SDS011;34843;48.744;8.958;2023-01-01T06:21:04;0.50;;;0.40;;
3201;SDS011;34843;48.744;8.958;2023-01-01T06:23:33;0.50;;;0.40;;
3201;SDS011;34843;48.744;8.958;2023-01-01T06:26:09;0.50;;;0.40;;
3201;SDS011;34843;48.744;8.958;2023-01-01T06:28:38;0.50;;;0.40;;
3201;SDS011;34843;48.744;8.958;2023-01-01T06:31:04;0.50;;;0.40;;
3201;SDS011;34843;48.744;8.958;2023-01-01T06:33:32;0.50;;;0.40;;
3201;SDS011;34843;48.744;8.958;2023-01-01T06:36:00;0.50;;;0.40;;
3201;SDS011;34843;48.744;8.958;2023-01-01T06:38:29;0.87;;;0.87;;
3201;SDS011;34843;48.744;8.958;2023-01-01T06:40:59;0.50;;;0.40;;
3201;SDS011;34843;48.744;8.958;2023-01-01T06:43:26;0.70;;;0.70;;
3201;SDS011;34843;48.744;8.958;2023-01-01T06:46:02;0.50;;;0.40;;
3201;SDS011;34843;48.744;8.958;2023-01-01T06:48:37;0.50;;;0.40;;
3201;SDS011;34843;48.744;8.958;2023-01-01T06:51:06;0.50;;;0.40;;
3201;SDS011;34843;48.744;8.958;2023-01-01T06:53:37;3.63;;;1.30;;
3201;SDS011;34843;48.744;8.958;2023-01-01T06:56:02;0.50;;;0.40;;
3201;SDS011;34843;48.744;8.958;2023-01-01T06:58:28;0.50;;;0.40;;
3201;SDS011;34843;48.744;8.958;2023-01-01T07:01:01;0.80;;;0.73;;
3201;SDS011;34843;48.744;8.958;2023-01-01T07:03:27;0.70;;;0.60;;
3201;SDS011;34843;48.744;8.958;2023-01-01T07:05:53;0.50;;;0.40;;
3201;SDS011;34843;48.744;8.958;2023-01-01T07:08:18;0.50;;;0.40;;
3201;SDS011;34843;48.744;8.958;2023-01-01T07:10:44;1.17;;;1.17;;
3201;SDS011;34843;48.744;8.958;2023-01-01T07:13:09;0.50;;;0.40;;
3201;SDS011;34843;48.744;8.958;2023-01-01T07:15:35;0.50;;;0.40;;
3201;SDS011;34843;48.744;8.958;2023-01-01T07:18:01;0.50;;;0.40;;
3201;SDS011;34843;48.744;8.958;2023-01-01T07:20:27;1.27;;;0.93;;
3201;SDS011;34843;48.744;8.958;2023-01-01T07:22:52;0.97;;;0.97;;
3201;SDS011;34843;48.744;8.958;2023-01-01T07:25:17;0.50;;;0.40;;
3201;SDS011;34843;48.744;8.958;2023-01-01T07:27:43;0.50;;;0.40;;
3201;SDS011;34843;48.744;8.958;2023-01-01T07:30:08;0.50;;;0.40;;
3201;SDS011;34843;48.744;8.958;2023-01-01T07:32:34;1.10;;;0.70;;
3201;SDS011;34843;48.744;8.958;2023-01-01T07:35:00;0.50;;;0.40;;
3201;SDS011;34843;48.744;8.958;2023-01-01T07:37:25;0.50;;;0.40;;
3201;SDS011;34843;48.744;8.958;2023-01-01T07:39:51;0.50;;;0.40;;
3201;SDS011;34843;48.744;8.958;2023-01-01T07:42:17;0.50;;;0.40;;
3201;SDS011;34843;48.744;8.958;2023-01-01T07:44:42;0.50;;;0.40;;
3201;SDS011;34843;48.744;8.958;2023-01-01T07:47:13;0.50;;;0.40;;
3201;SDS011;34843;48.744;8.958;2023-01-01T07:49:47;0.50;;;0.50;;
3201;SDS011;34843;48.744;8.958;2023-01-01T07:52:13;0.50;;;0.40;;
3201;SDS011;34843;48.744;8.958;2023-01-01T07:54:38;0.50;;;0.47;;
3201;SDS011;34843;48.744;8.958;2023-01-01T07:57:04;0.50;;;0.40;;
3201;SDS011;34843;48.744;8.958;2023-01-01T07:59:29;1.00;;;0.73;;
3201;SDS011;34843;48.744;8.958;2023-01-01T08:01:55;1.00;;;0.80;;
3201;SDS011;34843;48.744;8.958;2023-01-01T08:04:21;0.90;;;0.60;;
3201;SDS011;34843;48.744;8.958;2023-01-01T08:06:46;1.47;;;0.83;;
3201;SDS011;34843;48.744;8.958;2023-01-01T08:09:12;0.53;;;0.47;;
3201;SDS011;34843;48.744;8.958;2023-01-01T08:11:37;1.33;;;0.70;;
3201;SDS011;34843;48.744;8.958;2023-01-01T08:14:04;0.60;;;0.50;;
3201;SDS011;34843;48.744;8.958;2023-01-01T08:16:29;0.50;;;0.40;;
3201;SDS011;34843;48.744;8.958;2023-01-01T08:18:55;0.50;;;0.40;;
3201;SDS011;34843;48.744;8.958;2023-01-01T08:21:20;0.80;;;0.80;;
3201;SDS011;34843;48.744;8.958;2023-01-01T08:23:46;0.77;;;0.77;;
3201;SDS011;34843;48.744;8.958;2023-01-01T08:26:15;0.70;;;0.70;;
3201;SDS011;34843;48.744;8.958;2023-01-01T08:28:41;1.60;;;1.50;;
3201;SDS011;34843;48.744;8.958;2023-01-01T08:31:07;0.73;;;0.70;;
3201;SDS011;34843;48.744;8.958;2023-01-01T08:33:32;1.33;;;0.70;;
3201;SDS011;34843;48.744;8.958;2023-01-01T08:35:58;0.70;;;0.70;;
3201;SDS011;34843;48.744;8.958;2023-01-01T08:38:24;0.70;;;0.70;;
3201;SDS011;34843;48.744;8.958;2023-01-01T08:40:50;0.93;;;0.90;;
3201;SDS011;34843;48.744;8.958;2023-01-01T08:43:15;1.73;;;1.40;;
3201;SDS011;34843;48.744;8.958;2023-01-01T08:45:41;1.53;;;1.00;;
3201;SDS011;34843;48.744;8.958;2023-01-01T08:48:07;0.73;;;0.73;;
3201;SDS011;34843;48.744;8.958;2023-01-01T08:50:33;1.47;;;1.37;;
3201;SDS011;34843;48.744;8.958;2023-01-01T08:52:58;0.50;;;0.40;;
3201;SDS011;34843;48.744;8.958;2023-01-01T08:55:24;0.50;;;0.40;;
3201;SDS011;34843;48.744;8.958;2023-01-01T08:57:49;0.80;;;0.80;;
3201;SDS011;34843;48.744;8.958;2023-01-01T09:00:15;1.23;;;1.10;;
3201;SDS011;34843;48.744;8.958;2023-01-01T09:02:42;1.53;;;0.80;;
3201;SDS011;34843;48.744;8.958;2023-01-01T09:05:08;0.60;;;0.50;;
3201;SDS011;34843;48.744;8.958;2023-01-01T09:07:34;0.50;;;0.40;;
3201;SDS011;34843;48.744;8.958;2023-01-01T09:09:59;0.93;;;0.87;;
3201;SDS011;34843;48.744;8.958;2023-01-01T09:12:25;0.60;;;0.60;;
3201;SDS011;34843;48.744;8.958;2023-01-01T09:14:50;0.93;;;0.93;;
3201;SDS011;34843;48.744;8.958;2023-01-01T09:17:16;0.50;;;0.50;;
3201;SDS011;34843;48.744;8.958;2023-01-01T09:19:41;1.70;;;1.70;;
3201;SDS011;34843;48.744;8.958;2023-01-01T09:22:08;0.50;;;0.40;;
3201;SDS011;34843;48.744;8.958;2023-01-01T09:24:34;0.73;;;0.60;;
3201;SDS011;34843;48.744;8.958;2023-01-01T09:26:59;0.80;;;0.47;;
3201;SDS011;34843;48.744;8.958;2023-01-01T09:29:25;0.53;;;0.53;;
3201;SDS011;34843;48.744;8.958;2023-01-01T09:31:50;0.97;;;0.97;;
3201;SDS011;34843;48.744;8.958;2023-01-01T09:34:16;1.27;;;0.97;;
3201;SDS011;34843;48.744;8.958;2023-01-01T09:36:42;0.90;;;0.70;;
3201;SDS011;34843;48.744;8.958;2023-01-01T09:39:09;2.40;;;2.00;;
3201;SDS011;34843;48.744;8.958;2023-01-01T09:47:40;0.70;;;0.67;;
3201;SDS011;34843;48.744;8.958;2023-01-01T09:50:15;0.50;;;0.40;;
3201;SDS011;34843;48.744;8.958;2023-01-01T09:52:48;1.17;;;1.07;;
3201;SDS011;34843;48.744;8.958;2023-01-01T09:58:01;2.40;;;1.00;;
3201;SDS011;34843;48.744;8.958;2023-01-01T10:00:27;0.50;;;0.40;;
3201;SDS011;34843;48.744;8.958;2023-01-01T10:13:46;0.50;;;0.50;;
3201;SDS011;34843;48.744;8.958;2023-01-01T10:18:59;0.50;;;0.40;;
3201;SDS011;34843;48.744;8.958;2023-01-01T10:21:32;0.67;;;0.67;;
3201;SDS011;34843;48.744;8.958;2023-01-01T10:24:08;0.50;;;0.50;;
3201;SDS011;34843;48.744;8.958;2023-01-01T10:27:02;0.50;;;0.30;;
3201;SDS011;34843;48.744;8.958;2023-01-01T10:32:26;0.50;;;0.40;;
3201;SDS011;34843;48.744;8.958;2023-01-01T10:34:57;0.50;;;0.40;;
3201;SDS011;34843;48.744;8.958;2023-01-01T10:37:23;0.50;;;0.30;;
3201;SDS011;34843;48.744;8.958;2023-01-01T10:39:51;0.50;;;0.37;;
3201;SDS011;34843;48.744;8.958;2023-01-01T10:42:17;2.40;;;1.07;;
3201;SDS011;34843;48.744;8.958;2023-01-01T10:44:42;0.50;;;0.40;;
3201;SDS011;34843;48.744;8.958;2023-01-01T10:47:22;1.00;;;1.00;;
3201;SDS011;34843;48.744;8.958;2023-01-01T10:52:24;4.33;;;3.03;;
3201;SDS011;34843;48.744;8.958;2023-01-01T10:54:57;3.40;;;1.43;;
3201;SDS011;34843;48.744;8.958;2023-01-01T11:03:04;4.00;;;2.73;;
3201;SDS011;34843;48.744;8.958;2023-01-01T11:05:36;0.50;;;0.50;;
3201;SDS011;34843;48.744;8.958;2023-01-01T11:08:02;0.83;;;0.83;;
3201;SDS011;34843;48.744;8.958;2023-01-01T11:10:28;0.50;;;0.40;;
3201;SDS011;34843;48.744;8.958;2023-01-01T11:12:55;0.53;;;0.53;;
3201;SDS011;34843;48.744;8.958;2023-01-01T11:15:22;0.60;;;0.50;;
3201;SDS011;34843;48.744;8.958;2023-01-01T11:18:01;0.50;;;0.40;;
3201;SDS011;34843;48.744;8.958;2023-01-01T11:20:29;0.50;;;0.30;;
3201;SDS011;34843;48.744;8.958;2023-01-01T11:22:56;0.50;;;0.30;;
3201;SDS011;34843;48.744;8.958;2023-01-01T11:25:23;0.50;;;0.30;;
3201;SDS011;34843;48.744;8.958;2023-01-01T11:27:51;0.80;;;0.80;;
3201;SDS011;34843;48.744;8.958;2023-01-01T11:30:35;2.50;;;2.30;;
3201;SDS011;34843;48.744;8.958;2023-01-01T11:33:01;0.67;;;0.67;;
3201;SDS011;34843;48.744;8.958;2023-01-01T11:35:47;4.20;;;1.77;;
3201;SDS011;34843;48.744;8.958;2023-01-01T11:38:17;0.60;;;0.40;;
3201;SDS011;34843;48.744;8.958;2023-01-01T11:40:44;0.50;;;0.30;;
3201;SDS011;34843;48.744;8.958;2023-01-01T11:43:22;0.50;;;0.30;;
3201;SDS011;34843;48.744;8.958;2023-01-01T11:45:50;0.50;;;0.33;;
3201;SDS011;34843;48.744;8.958;2023-01-01T11:48:27;0.70;;;0.63;;
3201;SDS011;34843;48.744;8.958;2023-01-01T11:50:57;0.50;;;0.40;;
3201;SDS011;34843;48.744;8.958;2023-01-01T11:53:27;1.70;;;1.30;;
3201;SDS011;34843;48.744;8.958;2023-01-01T11:58:49;0.50;;;0.40;;
3201;SDS011;34843;48.744;8.958;2023-01-01T12:01:27;0.50;;;0.40;;
3201;SDS011;34843;48.744;8.958;2023-01-01T12:04:07;0.90;;;0.80;;
3201;SDS011;34843;48.744;8.958;2023-01-01T12:09:41;0.50;;;0.40;;
3201;SDS011;34843;48.744;8.958;2023-01-01T12:15:19;0.60;;;0.50;;
3201;SDS011;34843;48.744;8.958;2023-01-01T12:20:44;0.50;;;0.30;;
3201;SDS011;34843;48.744;8.958;2023-01-01T12:23:32;0.60;;;0.60;;
3201;SDS011;34843;48.744;8.958;2023-01-01T12:26:01;1.67;;;0.60;;
3201;SDS011;34843;48.744;8.958;2023-01-01T12:31:27;1.70;;;0.60;;
3201;SDS011;34843;48.744;8.958;2023-01-01T12:34:09;0.60;;;0.40;;
3201;SDS011;34843;48.744;8.958;2023-01-01T12:39:41;0.50;;;0.30;;
3201;SDS011;34843;48.744;8.958;2023-01-01T12:42:26;0.50;;;0.40;;
3201;SDS011;34843;48.744;8.958;2023-01-01T12:45:07;0.50;;;0.50;;
3201;SDS011;34843;48.744;8.958;2023-01-01T12:58:44;0.50;;;0.30;;
3201;SDS011;34843;48.744;8.958;2023-01-01T13:03:50;0.50;;;0.40;;
3201;SDS011;34843;48.744;8.958;2023-01-01T13:06:19;0.50;;;0.40;;
3201;SDS011;34843;48.744;8.958;2023-01-01T13:08:50;0.50;;;0.30;;
3201;SDS011;34843;48.744;8.958;2023-01-01T13:11:20;0.60;;;0.60;;
3201;SDS011;34843;48.744;8.958;2023-01-01T13:13:49;1.53;;;0.90;;
3201;SDS011;34843;48.744;8.958;2023-01-01T13:16:17;0.50;;;0.40;;
3201;SDS011;34843;48.744;8.958;2023-01-01T13:18:57;0.50;;;0.30;;
3201;SDS011;34843;48.744;8.958;2023-01-01T13:21:23;1.07;;;1.07;;
3201;SDS011;34843;48.744;8.958;2023-01-01T13:23:50;0.50;;;0.30;;
3201;SDS011;34843;48.744;8.958;2023-01-01T13:28:42;0.50;;;0.40;;
3201;SDS011;34843;48.744;8.958;2023-01-01T14:02:48;0.57;;;0.53;;
3201;SDS011;34843;48.744;8.958;2023-01-01T14:04:46;0.50;;;0.30;;
3201;SDS011;34843;48.744;8.958;2023-01-01T14:12:42;0.50;;;0.40;;
3201;SDS011;34843;48.744;8.958;2023-01-01T14:17:46;0.50;;;0.30;;
3201;SDS011;34843;48.744;8.958;2023-01-01T14:20:14;0.50;;;0.30;;
3201;SDS011;34843;48.744;8.958;2023-01-01T14:22:43;0.50;;;0.30;;
3201;SDS011;34843;48.744;8.958;2023-01-01T14:25:18;0.50;;;0.30;;
3201;SDS011;34843;48.744;8.958;2023-01-01T14:27:49;0.50;;;0.30;;
3201;SDS011;34843;48.744;8.958;2023-01-01T14:30:16;0.50;;;0.30;;
3201;SDS011;34843;48.744;8.958;2023-01-01T14:32:43;0.50;;;0.30;;
3201;SDS011;34843;48.744;8.958;2023-01-01T14:35:15;0.50;;;0.40;;
3201;SDS011;34843;48.744;8.958;2023-01-01T14:37:41;0.50;;;0.30;;
3201;SDS011;34843;48.744;8.958;2023-01-01T14:40:14;0.50;;;0.40;;
3201;SDS011;34843;48.744;8.958;2023-01-01T14:42:40;0.50;;;0.30;;
3201;SDS011;34843;48.744;8.958;2023-01-01T14:45:11;0.50;;;0.30;;
3201;SDS011;34843;48.744;8.958;2023-01-01T14:47:39;0.50;;;0.40;;
3201;SDS011;34843;48.744;8.958;2023-01-01T14:50:26;0.50;;;0.30;;
3201;SDS011;34843;48.744;8.958;2023-01-01T14:52:53;0.50;;;0.30;;
3201;SDS011;34843;48.744;8.958;2023-01-01T14:55:23;0.50;;;0.30;;
3201;SDS011;34843;48.744;8.958;2023-01-01T14:57:56;0.50;;;0.30;;
3201;SDS011;34843;48.744;8.958;2023-01-01T15:00:24;0.50;;;0.40;;
3201;SDS011;34843;48.744;8.958;2023-01-01T15:02:52;0.50;;;0.30;;
3201;SDS011;34843;48.744;8.958;2023-01-01T15:07:54;0.50;;;0.30;;
3201;SDS011;34843;48.744;8.958;2023-01-01T15:10:24;0.50;;;0.30;;
3201;SDS011;34843;48.744;8.958;2023-01-01T15:12:51;0.50;;;0.30;;
3201;SDS011;34843;48.744;8.958;2023-01-01T15:18:01;0.50;;;0.30;;
3201;SDS011;34843;48.744;8.958;2023-01-01T15:20:26;0.50;;;0.40;;
3201;SDS011;34843;48.744;8.958;2023-01-01T15:22:53;0.50;;;0.30;;
3201;SDS011;34843;48.744;8.958;2023-01-01T15:25:19;0.50;;;0.40;;
3201;SDS011;34843;48.744;8.958;2023-01-01T15:27:48;0.50;;;0.40;;
3201;SDS011;34843;48.744;8.958;2023-01-01T15:32:49;0.50;;;0.40;;
3201;SDS011;34843;48.744;8.958;2023-01-01T15:35:19;0.50;;;0.30;;
3201;SDS011;34843;48.744;8.958;2023-01-01T15:37:51;0.50;;;0.30;;
3201;SDS011;34843;48.744;8.958;2023-01-01T15:45:30;0.50;;;0.40;;
3201;SDS011;34843;48.744;8.958;2023-01-01T15:50:34;0.50;;;0.40;;
3201;SDS011;34843;48.744;8.958;2023-01-01T15:53:14;0.50;;;0.30;;
3201;SDS011;34843;48.744;8.958;2023-01-01T15:55:45;0.50;;;0.40;;
3201;SDS011;34843;48.744;8.958;2023-01-01T15:58:22;0.87;;;0.87;;
3201;SDS011;34843;48.744;8.958;2023-01-01T16:00:58;0.50;;;0.40;;
3201;SDS011;34843;48.744;8.958;2023-01-01T16:03:26;0.50;;;0.40;;
3201;SDS011;34843;48.744;8.958;2023-01-01T16:05:54;0.60;;;0.57;;
3201;SDS011;34843;48.744;8.958;2023-01-01T16:08:20;0.50;;;0.40;;
3201;SDS011;34843;48.744;8.958;2023-01-01T16:10:46;1.63;;;1.53;;
3201;SDS011;34843;48.744;8.958;2023-01-01T16:13:12;1.33;;;1.03;;
3201;SDS011;34843;48.744;8.958;2023-01-01T16:15:48;0.50;;;0.40;;
3201;SDS011;34843;48.744;8.958;2023-01-01T16:18:21;1.93;;;1.57;;
3201;SDS011;34843;48.744;8.958;2023-01-01T16:20:51;0.50;;;0.40;;
3201;SDS011;34843;48.744;8.958;2023-01-01T16:23:18;0.50;;;0.40;;
3201;SDS011;34843;48.744;8.958;2023-01-01T16:25:43;0.50;;;0.40;;
3201;SDS011;34843;48.744;8.958;2023-01-01T16:28:09;0.50;;;0.40;;
3201;SDS011;34843;48.744;8.958;2023-01-01T16:30:34;4.47;;;4.23;;
3201;SDS011;34843;48.744;8.958;2023-01-01T16:33:00;0.50;;;0.40;;
3201;SDS011;34843;48.744;8.958;2023-01-01T16:35:26;0.60;;;0.60;;
3201;SDS011;34843;48.744;8.958;2023-01-01T16:37:51;0.50;;;0.40;;
3201;SDS011;34843;48.744;8.958;2023-01-01T16:40:16;0.50;;;0.40;;
3201;SDS011;34843;48.744;8.958;2023-01-01T16:42:42;0.50;;;0.40;;
3201;SDS011;34843;48.744;8.958;2023-01-01T16:45:11;0.50;;;0.40;;
3201;SDS011;34843;48.744;8.958;2023-01-01T16:47:42;0.50;;;0.40;;
3201;SDS011;34843;48.744;8.958;2023-01-01T16:50:08;0.50;;;0.40;;
3201;SDS011;34843;48.744;8.958;2023-01-01T16:52:34;0.50;;;0.40;;
3201;SDS011;34843;48.744;8.958;2023-01-01T16:55:00;0.50;;;0.40;;
3201;SDS011;34843;48.744;8.958;2023-01-01T16:57:25;0.50;;;0.30;;
3201;SDS011;34843;48.744;8.958;2023-01-01T16:59:51;2.83;;;1.63;;
3201;SDS011;34843;48.744;8.958;2023-01-01T17:02:16;0.60;;;0.53;;
3201;SDS011;34843;48.744;8.958;2023-01-01T17:04:42;0.50;;;0.40;;
3201;SDS011;34843;48.744;8.958;2023-01-01T17:07:07;0.50;;;0.40;;
3201;SDS011;34843;48.744;8.958;2023-01-01T17:09:33;0.50;;;0.40;;
3201;SDS011;34843;48.744;8.958;2023-01-01T17:11:58;0.50;;;0.40;;
3201;SDS011;34843;48.744;8.958;2023-01-01T17:14:24;8.27;;;6.27;;
3201;SDS011;34843;48.744;8.958;2023-01-01T17:16:49;0.50;;;0.40;;
3201;SDS011;34843;48.744;8.958;2023-01-01T17:19:17;0.50;;;0.40;;
3201;SDS011;34843;48.744;8.958;2023-01-01T17:21:42;0.60;;;0.60;;
3201;SDS011;34843;48.744;8.958;2023-01-01T17:24:09;0.50;;;0.40;;
3201;SDS011;34843;48.744;8.958;2023-01-01T17:26:34;0.50;;;0.40;;
3201;SDS011;34843;48.744;8.958;2023-01-01T17:29:00;0.50;;;0.40;;
3201;SDS011;34843;48.744;8.958;2023-01-01T17:31:27;0.50;;;0.40;;